Time;durP1;ratioP1;P1;durP2;ratioP2;P2;SDS_P1;SDS_P2;PMS_P1;PMS_P2;Temp;Humidity;BMP_temperature;BMP_pressure;BME280_temperature;BME280_humidity;BME280_pressure;Samples;Min_cycle;Max_cycle;Signal;HPM_P1;HPM_P2
2023/12/12 00:00:35;;;;;;;;;;;;;;;21.76;25.82;97574.78;5036363;28;909;-73
2023/12/12 00:03:00;;;;;;;;;;;;;;;21.76;25.46;97583.28;5037658;28;972;-73
2023/12/12 00:05:26;;;;;;;;;;;;;;;21.96;25.46;97585.81;5037697;28;886;-73
2023/12/12 00:07:52;;;;;;;;;;;;;;;21.62;25.52;97586.59;5016043;28;1472;-73
2023/12/12 00:10:17;;;;;;;;;;;;;;;21.61;25.38;97599.16;4979362;28;1984;-73
2023/12/12 00:12:43;;;;;;;;;;;;;;;21.72;25.69;97608.09;4995547;28;1144;-73
2023/12/12 00:15:09;;;;;;;;;;;;;;;22.02;25.08;97603.84;4995552;28;913;-73
2023/12/12 00:17:35;;;;;;;;;;;;;;;21.70;25.72;97599.25;4992425;28;1468;-74
2023/12/12 00:20:00;;;;;;;;;;;;;;;21.67;25.85;97591.69;4982567;28;1108;-74
2023/12/12 00:22:26;;;;;;;;;;;;;;;21.76;25.72;97594.63;5015057;28;1020;-73
2023/12/12 00:24:51;;;;;;;;;;;;;;;22.13;24.99;97591.38;4998574;28;930;-73
2023/12/12 00:27:17;;;;;;;;;;;;;;;21.81;25.34;97593.22;5014715;28;1348;-73
2023/12/12 00:29:45;;;;;;;;;;;;;;;21.75;25.51;97595.06;4998678;28;1972;-73
2023/12/12 00:32:10;;;;;;;;;;;;;;;21.67;25.94;97600.19;4994878;28;933;-74
2023/12/12 00:34:36;;;;;;;;;;;;;;;21.64;25.80;97600.28;4995220;28;1279;-73
2023/12/12 00:37:02;;;;;;;;;;;;;;;21.80;25.64;97588.81;4994296;28;1438;-73
2023/12/12 00:39:27;;;;;;;;;;;;;;;21.83;25.56;97585.88;4978388;28;989;-73
2023/12/12 00:41:53;;;;;;;;;;;;;;;21.74;25.58;97594.25;4993473;28;1269;-73
2023/12/12 00:44:18;;;;;;;;;;;;;;;21.69;25.68;97585.56;4998312;28;934;-73
2023/12/12 00:46:44;;;;;;;;;;;;;;;21.89;25.38;97588.13;4998019;28;1753;-73
2023/12/12 00:49:09;;;;;;;;;;;;;;;21.67;25.46;97591.69;5014784;28;1910;-73
2023/12/12 00:51:35;;;;;;;;;;;;;;;21.45;25.93;97593.59;5014877;28;984;-73
2023/12/12 00:54:01;;;;;;;;;;;;;;;21.38;26.31;97594.66;4998089;28;983;-73
2023/12/12 00:56:26;;;;;;;;;;;;;;;21.78;25.40;97594.94;5014198;28;1494;-73
2023/12/12 00:58:52;;;;;;;;;;;;;;;21.87;25.61;97596.28;4998007;28;952;-73
2023/12/12 01:01:18;;;;;;;;;;;;;;;21.97;25.49;97595.13;4975262;28;1127;-73
2023/12/12 01:03:43;;;;;;;;;;;;;;;22.19;25.25;97601.66;4959443;28;1022;-73
2023/12/12 01:06:10;;;;;;;;;;;;;;;21.81;25.55;97598.88;4959027;28;1467;-73
2023/12/12 01:08:35;;;;;;;;;;;;;;;21.81;25.30;97599.72;4959250;28;1037;-73
2023/12/12 01:11:01;;;;;;;;;;;;;;;22.01;25.34;97602.25;4975271;28;1915;-73
2023/12/12 01:13:26;;;;;;;;;;;;;;;21.97;25.04;97589.47;4959345;28;1121;-73
2023/12/12 01:15:52;;;;;;;;;;;;;;;21.62;25.70;97580.94;4959494;28;1061;-73
2023/12/12 01:18:17;;;;;;;;;;;;;;;21.66;25.71;97569.47;4958770;28;1382;-73
2023/12/12 01:20:43;;;;;;;;;;;;;;;21.76;25.58;97571.97;4962200;28;1795;-73
2023/12/12 01:23:09;;;;;;;;;;;;;;;21.85;25.46;97577.69;4975347;28;928;-73
2023/12/12 01:25:34;;;;;;;;;;;;;;;21.98;25.44;97579.72;4959232;28;1058;-74
2023/12/12 01:28:00;;;;;;;;;;;;;;;22.04;25.02;97575.06;4959000;28;978;-73
2023/12/12 01:30:25;;;;;;;;;;;;;;;21.97;25.19;97578.13;4977534;28;1910;-74
2023/12/12 01:32:51;;;;;;;;;;;;;;;21.87;25.44;97576.47;4962057;28;1001;-73
2023/12/12 01:35:16;;;;;;;;;;;;;;;22.00;25.35;97572.34;4978004;28;1360;-73
2023/12/12 01:37:42;;;;;;;;;;;;;;;21.90;25.46;97562.16;4995831;28;1004;-73
2023/12/12 01:40:08;;;;;;;;;;;;;;;21.55;25.80;97552.84;4955272;29;1376;-73
2023/12/12 01:42:33;;;;;;;;;;;;;;;21.43;25.74;97550.84;4971541;28;1022;-73
2023/12/12 01:44:59;;;;;;;;;;;;;;;21.40;25.87;97534.75;4955616;29;997;-74
2023/12/12 01:47:25;;;;;;;;;;;;;;;21.65;25.63;97534.69;4955837;28;1028;-74
2023/12/12 01:49:51;;;;;;;;;;;;;;;21.77;25.35;97536.72;4970994;28;1973;-73
2023/12/12 01:52:16;;;;;;;;;;;;;;;21.66;25.81;97553.28;4973030;28;984;-73
2023/12/12 01:54:44;;;;;;;;;;;;;;;21.72;25.53;97545.81;4959497;29;944;-73
2023/12/12 01:57:10;;;;;;;;;;;;;;;21.74;25.64;97537.63;4959330;28;1108;-73
2023/12/12 01:59:36;;;;;;;;;;;;;;;21.81;25.64;97548.72;4955557;29;1313;-73
2023/12/12 02:02:02;;;;;;;;;;;;;;;21.60;25.54;97546.59;4940152;29;1078;-74
2023/12/12 02:04:27;;;;;;;;;;;;;;;21.49;25.67;97549.00;4955849;28;1062;-73
2023/12/12 02:06:53;;;;;;;;;;;;;;;21.20;26.34;97555.59;4958068;29;938;-73
2023/12/12 02:09:18;;;;;;;;;;;;;;;21.61;25.77;97551.03;4958190;29;1907;-74
2023/12/12 02:11:44;;;;;;;;;;;;;;;21.78;25.62;97554.50;5003420;28;1140;-73
2023/12/12 02:14:10;;;;;;;;;;;;;;;21.74;25.51;97554.63;5017595;28;943;-73
2023/12/12 02:16:35;;;;;;;;;;;;;;;22.01;25.02;97561.78;5017461;28;985;-74
2023/12/12 02:19:01;;;;;;;;;;;;;;;21.95;25.31;97549.47;5003540;28;1702;-73
2023/12/12 02:21:26;;;;;;;;;;;;;;;21.97;25.28;97541.31;5004030;28;1235;-74
2023/12/12 02:23:52;;;;;;;;;;;;;;;21.90;25.19;97538.72;5020580;28;973;-73
2023/12/12 02:26:18;;;;;;;;;;;;;;;21.76;25.17;97540.81;5020544;28;1201;-73
2023/12/12 02:28:43;;;;;;;;;;;;;;;21.78;25.37;97538.31;5036634;28;1471;-73
2023/12/12 02:31:09;;;;;;;;;;;;;;;21.85;25.45;97555.03;5036865;28;1983;-74
2023/12/12 02:33:34;;;;;;;;;;;;;;;21.84;25.14;97553.47;5016897;28;994;-73
2023/12/12 02:36:00;;;;;;;;;;;;;;;21.59;25.41;97554.31;5017292;28;971;-73
2023/12/12 02:38:26;;;;;;;;;;;;;;;21.64;25.50;97561.44;4983895;28;1459;-73
2023/12/12 02:40:51;;;;;;;;;;;;;;;21.79;25.31;97562.53;5016673;28;998;-73
2023/12/12 02:43:17;;;;;;;;;;;;;;;21.91;25.06;97554.47;5000550;28;1001;-74
2023/12/12 02:45:42;;;;;;;;;;;;;;;21.93;24.90;97560.47;5016904;28;1510;-73
2023/12/12 02:48:08;;;;;;;;;;;;;;;21.67;25.62;97566.19;4999842;28;1378;-73
2023/12/12 02:50:34;;;;;;;;;;;;;;;21.98;25.02;97562.72;5016496;28;1910;-74
2023/12/12 02:52:59;;;;;;;;;;;;;;;21.89;25.18;97559.78;5000466;28;957;-73
2023/12/12 02:55:25;;;;;;;;;;;;;;;21.41;25.47;97570.31;5000551;28;985;-73
2023/12/12 02:57:50;;;;;;;;;;;;;;;21.25;25.95;97572.00;5016272;28;1347;-73
2023/12/12 03:00:16;;;;;;;;;;;;;;;21.36;25.69;97568.06;4996915;28;1071;-73
2023/12/12 03:02:41;;;;;;;;;;;;;;;21.59;25.41;97576.97;4996348;28;962;-74
2023/12/12 03:05:07;;;;;;;;;;;;;;;21.81;25.29;97577.06;4996860;28;1080;-74
2023/12/12 03:07:33;;;;;;;;;;;;;;;21.95;25.13;97570.09;4996982;28;975;-73
2023/12/12 03:09:58;;;;;;;;;;;;;;;22.07;25.06;97588.28;4996096;28;1899;-73
2023/12/12 03:12:24;;;;;;;;;;;;;;;22.05;24.98;97573.78;4980565;28;1253;-73
2023/12/12 03:14:50;;;;;;;;;;;;;;;21.98;24.89;97562.72;4996838;28;900;-73
2023/12/12 03:17:15;;;;;;;;;;;;;;;22.03;24.71;97562.13;4996538;28;967;-73
2023/12/12 03:19:41;;;;;;;;;;;;;;;22.08;24.85;97567.22;4995764;28;1465;-73
2023/12/12 03:22:06;;;;;;;;;;;;;;;22.01;24.76;97564.63;4980371;28;1168;-73
2023/12/12 03:24:32;;;;;;;;;;;;;;;21.83;24.92;97568.88;4980505;28;995;-73
2023/12/12 03:26:58;;;;;;;;;;;;;;;21.70;25.01;97568.09;4977236;28;1513;-73
2023/12/12 03:29:23;;;;;;;;;;;;;;;21.76;25.29;97574.78;4993562;28;1902;-73
2023/12/12 03:31:49;;;;;;;;;;;;;;;21.80;25.29;97569.78;4995312;28;2065;-73
2023/12/12 03:34:15;;;;;;;;;;;;;;;21.63;25.40;97574.00;4996062;28;1341;-73
2023/12/12 03:36:44;;;;;;;;;;;;;;;22.01;24.88;97568.25;4996278;28;1005;-73
2023/12/12 03:39:10;;;;;;;;;;;;;;;22.15;24.71;97572.66;5002461;28;1431;-74
2023/12/12 03:41:35;;;;;;;;;;;;;;;21.71;25.05;97566.88;4998495;28;1419;-73
2023/12/12 03:44:01;;;;;;;;;;;;;;;21.83;25.02;97580.19;5000700;28;1452;-74
2023/12/12 03:46:26;;;;;;;;;;;;;;;21.69;24.91;97569.34;4996271;28;1003;-73
2023/12/12 03:48:52;;;;;;;;;;;;;;;21.71;25.11;97578.19;5017125;28;1410;-73
2023/12/12 03:51:18;;;;;;;;;;;;;;;21.79;25.23;97573.88;5032842;28;1972;-73
2023/12/12 03:53:43;;;;;;;;;;;;;;;21.77;24.98;97567.09;5027539;28;1448;-74
2023/12/12 03:56:09;;;;;;;;;;;;;;;21.98;24.95;97565.56;5018270;28;1257;-72
2023/12/12 03:58:34;;;;;;;;;;;;;;;21.90;25.05;97572.72;5018673;28;981;-73
2023/12/12 04:01:00;;;;;;;;;;;;;;;21.92;25.04;97567.41;5018536;28;1079;-73
2023/12/12 04:03:26;;;;;;;;;;;;;;;21.70;25.14;97568.09;5018742;28;1099;-72
2023/12/12 04:05:51;;;;;;;;;;;;;;;22.04;24.67;97573.00;5001785;28;1299;-73
2023/12/12 04:08:17;;;;;;;;;;;;;;;21.79;25.08;97573.88;5034980;28;926;-73
2023/12/12 04:10:43;;;;;;;;;;;;;;;21.83;24.72;97568.09;4986051;28;1906;-73
2023/12/12 04:13:09;;;;;;;;;;;;;;;21.62;25.01;97563.16;5034957;28;1013;-73
2023/12/12 04:15:34;;;;;;;;;;;;;;;21.58;25.38;97563.25;4997382;28;1405;-74
2023/12/12 04:18:00;;;;;;;;;;;;;;;22.00;24.88;97571.53;5015388;28;1092;-73
2023/12/12 04:20:25;;;;;;;;;;;;;;;22.04;24.54;97570.16;4995625;28;907;-73
2023/12/12 04:22:51;;;;;;;;;;;;;;;21.94;24.96;97570.53;4979190;28;1633;-73
2023/12/12 04:25:16;;;;;;;;;;;;;;;22.01;24.57;97578.78;4990205;28;1431;-74
2023/12/12 04:27:42;;;;;;;;;;;;;;;22.03;24.79;97582.75;4998737;28;926;-74
2023/12/12 04:30:08;;;;;;;;;;;;;;;21.88;24.66;97589.38;5015066;28;1980;-73
2023/12/12 04:32:33;;;;;;;;;;;;;;;21.33;25.29;97604.50;4998545;28;969;-73
2023/12/12 04:34:59;;;;;;;;;;;;;;;21.50;25.33;97598.69;5013079;28;1743;-73
2023/12/12 04:37:25;;;;;;;;;;;;;;;21.74;25.33;97605.59;4998348;28;950;-73
2023/12/12 04:39:50;;;;;;;;;;;;;;;21.91;24.90;97596.94;5015151;28;957;-73
2023/12/12 04:42:16;;;;;;;;;;;;;;;21.63;25.45;97610.81;4998248;28;1113;-73
2023/12/12 04:44:41;;;;;;;;;;;;;;;21.86;25.00;97609.63;4998160;28;1651;-73
2023/12/12 04:47:07;;;;;;;;;;;;;;;21.89;24.87;97610.78;5014513;28;970;-73
2023/12/12 04:49:33;;;;;;;;;;;;;;;21.76;24.85;97607.97;5014404;28;1902;-73
2023/12/12 04:51:58;;;;;;;;;;;;;;;21.65;25.13;97616.81;5001495;28;930;-73
2023/12/12 04:54:24;;;;;;;;;;;;;;;21.30;25.43;97604.63;5007750;28;1764;-73
2023/12/12 04:56:50;;;;;;;;;;;;;;;21.74;25.11;97616.13;5016355;28;1237;-73
2023/12/12 04:59:15;;;;;;;;;;;;;;;21.96;24.99;97616.19;5015602;28;937;-73
2023/12/12 05:01:41;;;;;;;;;;;;;;;21.94;24.97;97621.53;5015509;28;1048;-73
2023/12/12 05:04:07;;;;;;;;;;;;;;;22.08;24.75;97618.22;4999233;28;1239;-73
2023/12/12 05:06:33;;;;;;;;;;;;;;;21.97;24.90;97620.63;5016379;28;1028;-73
2023/12/12 05:08:58;;;;;;;;;;;;;;;21.91;24.93;97630.94;5014357;28;970;-73
2023/12/12 05:11:24;;;;;;;;;;;;;;;21.82;24.99;97629.59;4998256;28;1910;-73
2023/12/12 05:13:49;;;;;;;;;;;;;;;21.72;25.09;97625.09;5014585;28;1100;-73
2023/12/12 05:16:15;;;;;;;;;;;;;;;22.02;24.68;97626.50;4997800;28;1197;-73
2023/12/12 05:18:41;;;;;;;;;;;;;;;21.95;24.80;97614.63;4997588;28;1310;-73
2023/12/12 05:21:06;;;;;;;;;;;;;;;21.54;25.29;97607.88;5005227;28;1160;-74
2023/12/12 05:23:32;;;;;;;;;;;;;;;21.17;25.82;97600.94;4997368;28;1140;-73
2023/12/12 05:25:57;;;;;;;;;;;;;;;21.61;25.44;97589.88;5014361;28;1282;-73
2023/12/12 05:28:23;;;;;;;;;;;;;;;21.97;24.61;97600.81;5001690;28;1258;-74
2023/12/12 05:30:49;;;;;;;;;;;;;;;21.90;24.67;97626.53;5001527;28;1902;-74
2023/12/12 05:33:14;;;;;;;;;;;;;;;21.96;24.93;97624.69;5001422;28;1343;-74
2023/12/12 05:35:40;;;;;;;;;;;;;;;21.96;24.96;97611.31;5009560;28;1266;-75
2023/12/12 05:38:06;;;;;;;;;;;;;;;21.96;24.65;97599.19;4984975;28;1303;-75
2023/12/12 05:40:32;;;;;;;;;;;;;;;21.87;24.75;97587.81;4996069;28;1148;-75
2023/12/12 05:42:58;;;;;;;;;;;;;;;21.82;24.79;97578.63;5017658;28;1368;-75
2023/12/12 05:45:24;;;;;;;;;;;;;;;21.85;24.99;97577.69;4997539;28;1227;-75
2023/12/12 05:47:49;;;;;;;;;;;;;;;21.76;25.11;97580.47;5006436;28;1203;-75
2023/12/12 05:50:15;;;;;;;;;;;;;;;21.72;24.82;97579.78;4999844;28;1883;-75
2023/12/12 05:52:41;;;;;;;;;;;;;;;21.65;24.98;97590.53;4999011;28;1297;-75
2023/12/12 05:55:07;;;;;;;;;;;;;;;21.70;25.21;97621.09;4983444;28;982;-74
2023/12/12 05:57:33;;;;;;;;;;;;;;;21.74;25.10;97633.91;4981963;28;1090;-74
2023/12/12 05:59:59;;;;;;;;;;;;;;;21.87;24.98;97633.13;4999128;28;910;-75
2023/12/12 06:02:24;;;;;;;;;;;;;;;22.17;24.59;97643.81;4998989;28;1158;-75
2023/12/12 06:04:50;;;;;;;;;;;;;;;22.10;24.48;97644.03;4982781;28;979;-72
2023/12/12 06:07:17;;;;;;;;;;;;;;;22.20;24.27;97642.13;4999991;28;1059;-72
2023/12/12 06:09:42;;;;;;;;;;;;;;;21.95;24.91;97640.91;4978947;28;1971;-72
2023/12/12 06:12:08;;;;;;;;;;;;;;;21.81;24.80;97633.69;4987791;28;1286;-73
2023/12/12 06:14:35;;;;;;;;;;;;;;;21.45;25.47;97627.56;4980287;28;1246;-72
2023/12/12 06:17:00;;;;;;;;;;;;;;;21.75;25.12;97624.16;4994725;28;1313;-73
2023/12/12 06:19:26;;;;;;;;;;;;;;;21.82;24.95;97631.66;4965313;28;1105;-73
2023/12/12 06:21:53;;;;;;;;;;;;;;;21.87;24.80;97631.06;4981014;28;948;-73
2023/12/12 06:24:19;;;;;;;;;;;;;;;21.82;24.83;97640.94;4965714;28;1064;-73
2023/12/12 06:26:45;;;;;;;;;;;;;;;21.58;25.27;97642.53;4981555;28;963;-73
2023/12/12 06:29:11;;;;;;;;;;;;;;;21.78;25.13;97640.25;4981321;28;953;-73
2023/12/12 06:31:36;;;;;;;;;;;;;;;21.42;25.41;97642.66;4997815;28;1931;-73
2023/12/12 06:34:02;;;;;;;;;;;;;;;21.93;24.71;97634.13;5006408;28;1054;-73
2023/12/12 06:36:27;;;;;;;;;;;;;;;21.89;24.98;97633.44;5000462;28;1332;-73
2023/12/12 06:38:53;;;;;;;;;;;;;;;22.05;24.55;97619.91;5016181;28;1033;-73
2023/12/12 06:41:18;;;;;;;;;;;;;;;22.16;24.39;97625.25;5012965;28;983;-73
2023/12/12 06:43:44;;;;;;;;;;;;;;;21.91;24.86;97626.06;4997309;28;1085;-73
2023/12/12 06:46:10;;;;;;;;;;;;;;;21.85;24.91;97636.38;4997385;28;1001;-73
2023/12/12 06:48:37;;;;;;;;;;;;;;;21.53;25.39;97640.28;4980714;28;1163;-73
2023/12/12 06:51:03;;;;;;;;;;;;;;;21.64;25.41;97646.38;4997160;28;1902;-72
2023/12/12 06:53:29;;;;;;;;;;;;;;;21.51;25.40;97637.13;4997289;28;1016;-73
2023/12/12 06:55:54;;;;;;;;;;;;;;;21.97;25.09;97640.47;4997221;28;989;-73
2023/12/12 06:58:22;;;;;;;;;;;;;;;21.83;25.13;97647.38;4997372;28;1115;-73
2023/12/12 07:00:48;;;;;;;;;;;;;;;21.94;24.82;97647.03;4996936;28;1100;-72
2023/12/12 07:03:13;;;;;;;;;;;;;;;21.85;25.23;97639.22;4996980;28;1140;-72
2023/12/12 07:05:39;;;;;;;;;;;;;;;21.80;25.01;97634.91;4996661;28;1042;-73
2023/12/12 07:08:04;;;;;;;;;;;;;;;21.77;25.22;97627.34;4996718;28;1105;-73
2023/12/12 07:10:30;;;;;;;;;;;;;;;21.61;25.13;97635.97;4996702;28;1980;-72
2023/12/12 07:12:56;;;;;;;;;;;;;;;21.53;25.78;97634.59;4996587;28;2110;-73
2023/12/12 07:15:23;;;;;;;;;;;;;;;21.67;25.53;97645.47;4996791;28;1244;-73
2023/12/12 07:17:49;;;;;;;;;;;;;;;21.76;25.23;97645.59;4996559;28;950;-72
2023/12/12 07:20:14;;;;;;;;;;;;;;;22.00;24.94;97650.88;5001369;28;1006;-73
2023/12/12 07:22:40;;;;;;;;;;;;;;;21.91;25.16;97648.72;5035856;28;969;-73
2023/12/12 07:25:05;;;;;;;;;;;;;;;21.78;25.12;97639.47;5035749;28;973;-73
2023/12/12 07:27:31;;;;;;;;;;;;;;;21.96;24.82;97636.03;5036097;28;1170;-72
2023/12/12 07:29:57;;;;;;;;;;;;;;;21.85;25.04;97628.69;5019323;28;1980;-73
2023/12/12 07:32:24;;;;;;;;;;;;;;;21.85;25.29;97630.72;4996314;28;1040;-72
2023/12/12 07:34:49;;;;;;;;;;;;;;;21.76;25.34;97625.75;4980136;28;1035;-73
2023/12/12 07:37:15;;;;;;;;;;;;;;;21.22;26.04;97628.69;4996182;28;954;-73
2023/12/12 07:39:40;;;;;;;;;;;;;;;21.87;25.11;97635.94;4954257;28;1334;-72
2023/12/12 07:42:06;;;;;;;;;;;;;;;22.12;24.98;97627.41;4938827;29;1435;-73
2023/12/12 07:44:32;;;;;;;;;;;;;;;21.96;25.13;97616.97;4951253;29;1189;-72
2023/12/12 07:47:01;;;;;;;;;;;;;;;22.18;24.71;97627.63;4946980;28;1256;-73
2023/12/12 07:49:27;;;;;;;;;;;;;;;22.01;24.81;97635.44;4929446;29;1989;-73
2023/12/12 07:51:53;;;;;;;;;;;;;;;21.77;25.09;97641.50;4940633;29;1553;-73
2023/12/12 07:54:18;;;;;;;;;;;;;;;21.59;25.58;97632.78;4940962;29;1276;-73
2023/12/12 07:56:44;;;;;;;;;;;;;;;21.87;25.31;97644.44;4940415;29;1240;-73
2023/12/12 07:59:09;;;;;;;;;;;;;;;21.78;25.40;97645.91;4956800;29;1220;-74
2023/12/12 08:01:36;;;;;;;;;;;;;;;21.79;25.43;97636.16;4956548;28;1275;-75
2023/12/12 08:04:04;;;;;;;;;;;;;;;21.68;25.62;97649.09;4940433;29;1280;-75
2023/12/12 08:06:30;;;;;;;;;;;;;;;21.98;24.92;97648.50;4921259;29;1511;-74
2023/12/12 08:08:56;;;;;;;;;;;;;;;21.75;25.16;97634.69;4942559;28;1311;-74
2023/12/12 08:11:24;;;;;;;;;;;;;;;21.74;25.42;97633.91;4956647;28;1918;-74
2023/12/12 08:13:50;;;;;;;;;;;;;;;21.71;25.29;97646.16;4956918;29;1025;-74
2023/12/12 08:16:15;;;;;;;;;;;;;;;21.88;25.19;97637.53;4959696;28;1107;-74
2023/12/12 08:18:41;;;;;;;;;;;;;;;21.94;25.29;97635.69;4975942;28;1132;-75
2023/12/12 08:21:08;;;;;;;;;;;;;;;21.85;25.41;97631.50;4976031;28;1203;-74
2023/12/12 08:23:34;;;;;;;;;;;;;;;21.95;25.29;97623.13;4937323;29;1050;-74
2023/12/12 08:26:00;;;;;;;;;;;;;;;21.81;25.26;97621.53;4937622;29;1009;-74
2023/12/12 08:28:26;;;;;;;;;;;;;;;21.82;25.51;97629.59;4937526;29;1137;-74
2023/12/12 08:30:51;;;;;;;;;;;;;;;21.59;25.71;97621.47;4937077;29;1981;-74
2023/12/12 08:33:18;;;;;;;;;;;;;;;21.56;25.58;97633.72;4924208;29;1613;-74
2023/12/12 08:35:43;;;;;;;;;;;;;;;21.65;25.47;97618.84;4898379;29;1270;-74
2023/12/12 08:38:09;;;;;;;;;;;;;;;21.69;25.28;97625.97;4899020;29;1272;-75
2023/12/12 08:40:35;;;;;;;;;;;;;;;21.87;25.33;97630.28;4898763;29;1313;-74
2023/12/12 08:43:01;;;;;;;;;;;;;;;21.84;25.10;97620.66;4901449;29;1376;-74
2023/12/12 08:45:26;;;;;;;;;;;;;;;21.83;25.16;97614.19;4917359;29;1264;-74
2023/12/12 08:47:52;;;;;;;;;;;;;;;21.70;25.38;97619.06;4889356;29;1217;-74
2023/12/12 08:50:17;;;;;;;;;;;;;;;21.67;25.73;97620.00;4891827;29;2001;-74
2023/12/12 08:52:43;;;;;;;;;;;;;;;21.91;25.30;97620.41;4898995;29;1197;-74
2023/12/12 08:55:09;;;;;;;;;;;;;;;22.00;25.27;97611.22;4924547;29;1220;-74
2023/12/12 08:57:34;;;;;;;;;;;;;;;22.09;24.93;97602.81;4936242;29;1303;-75
2023/12/12 09:00:01;;;;;;;;;;;;;;;21.94;25.26;97602.50;4936422;29;1226;-75
2023/12/12 09:02:26;;;;;;;;;;;;;;;21.95;25.29;97603.28;4950457;29;1239;-75
2023/12/12 09:04:52;;;;;;;;;;;;;;;21.93;25.09;97605.78;4955716;29;1368;-74
2023/12/12 09:07:18;;;;;;;;;;;;;;;21.96;25.05;97599.19;4984499;28;1199;-74
2023/12/12 09:09:43;;;;;;;;;;;;;;;22.10;25.00;97596.69;4978118;28;1983;-74
2023/12/12 09:12:10;;;;;;;;;;;;;;;21.83;25.46;97590.75;4975534;28;1310;-74
2023/12/12 09:14:36;;;;;;;;;;;;;;;21.61;25.51;97589.88;4961800;28;1270;-74
2023/12/12 09:17:01;;;;;;;;;;;;;;;21.52;25.92;97599.06;4977636;28;1311;-74
2023/12/12 09:19:27;;;;;;;;;;;;;;;21.72;25.34;97601.66;4969208;28;1671;-74
2023/12/12 09:21:54;;;;;;;;;;;;;;;22.01;25.11;97601.44;4967524;28;1270;-74
2023/12/12 09:24:20;;;;;;;;;;;;;;;21.87;25.20;97608.41;4983596;28;1237;-74
2023/12/12 09:26:46;;;;;;;;;;;;;;;21.67;25.33;97611.50;4969156;28;1350;-75
2023/12/12 09:29:11;;;;;;;;;;;;;;;21.43;25.96;97615.94;4967315;28;1284;-74
2023/12/12 09:31:37;;;;;;;;;;;;;;;21.83;25.33;97613.41;4984021;28;1902;-75
2023/12/12 09:34:03;;;;;;;;;;;;;;;21.95;25.22;97608.94;4970979;28;1391;-74
2023/12/12 09:36:29;;;;;;;;;;;;;;;22.01;25.23;97607.13;5015588;28;1348;-74
2023/12/12 09:38:54;;;;;;;;;;;;;;;22.00;25.44;97605.53;5014206;28;1230;-75
2023/12/12 09:41:20;;;;;;;;;;;;;;;22.15;24.83;97606.66;4990090;28;1301;-74
2023/12/12 09:43:47;;;;;;;;;;;;;;;22.10;24.95;97601.53;5014175;28;1284;-74
2023/12/12 09:46:13;;;;;;;;;;;;;;;21.74;25.29;97599.13;5014425;28;1277;-75
2023/12/12 09:48:38;;;;;;;;;;;;;;;21.68;25.33;97601.75;5015735;28;1258;-74
2023/12/12 09:51:05;;;;;;;;;;;;;;;21.46;25.81;97598.06;4981736;28;1902;-74
2023/12/12 09:53:35;;;;;;;;;;;;;;;21.71;25.83;97595.19;4993218;28;1368;-75
2023/12/12 09:56:04;;;;;;;;;;;;;;;21.87;25.25;97596.28;4958426;28;1299;-75
2023/12/12 09:58:29;;;;;;;;;;;;;;;21.85;25.48;97593.91;4958061;28;1187;-75
2023/12/12 10:00:55;;;;;;;;;;;;;;;21.90;25.23;97596.16;4974444;28;1378;-74
2023/12/12 10:03:20;;;;;;;;;;;;;;;22.05;25.08;97593.63;4958548;28;987;-74
2023/12/12 10:05:50;;;;;;;;;;;;;;;22.03;25.24;97593.31;4958325;28;963;-75
2023/12/12 10:08:18;;;;;;;;;;;;;;;21.73;25.47;97587.03;4958475;28;981;-74
2023/12/12 10:10:43;;;;;;;;;;;;;;;21.83;25.39;97590.75;4959028;28;2026;-75
2023/12/12 10:13:09;;;;;;;;;;;;;;;21.47;25.80;97596.81;4959373;28;934;-74
2023/12/12 10:15:35;;;;;;;;;;;;;;;21.90;25.39;97595.38;4962204;28;930;-74
2023/12/12 10:18:00;;;;;;;;;;;;;;;21.99;25.45;97592.63;4977946;28;905;-75
2023/12/12 10:20:26;;;;;;;;;;;;;;;21.94;25.47;97596.81;4993541;28;1974;-74
2023/12/12 10:22:53;;;;;;;;;;;;;;;22.10;25.42;97593.03;4997543;28;1047;-74
2023/12/12 10:25:19;;;;;;;;;;;;;;;22.08;25.05;97593.50;5013967;28;980;-74
2023/12/12 10:27:44;;;;;;;;;;;;;;;22.03;25.34;97598.97;5030629;28;890;-74
2023/12/12 10:30:11;;;;;;;;;;;;;;;21.81;25.49;97602.53;5018865;28;1979;-74
2023/12/12 10:32:37;;;;;;;;;;;;;;;21.63;25.46;97602.31;5033550;28;1301;-74
2023/12/12 10:35:03;;;;;;;;;;;;;;;21.74;25.70;97611.25;4986678;28;1278;-74
2023/12/12 10:37:29;;;;;;;;;;;;;;;21.98;25.21;97603.16;4986121;28;1302;-74
2023/12/12 10:39:54;;;;;;;;;;;;;;;21.99;25.35;97606.78;4947034;29;1330;-74
2023/12/12 10:42:20;;;;;;;;;;;;;;;22.02;25.22;97611.53;4948443;29;1282;-74
2023/12/12 10:44:46;;;;;;;;;;;;;;;22.09;25.26;97608.47;4948558;29;1298;-75
2023/12/12 10:47:13;;;;;;;;;;;;;;;22.12;25.19;97601.09;4946992;29;1315;-74
2023/12/12 10:49:39;;;;;;;;;;;;;;;21.79;25.64;97599.34;4948652;29;1931;-74
2023/12/12 10:52:06;;;;;;;;;;;;;;;21.77;25.49;97596.19;4932520;29;1260;-74
2023/12/12 10:54:32;;;;;;;;;;;;;;;21.88;25.29;97597.88;4949352;29;1306;-74
2023/12/12 10:56:57;;;;;;;;;;;;;;;21.83;25.77;97593.56;4947217;29;1256;-74
2023/12/12 10:59:23;;;;;;;;;;;;;;;21.99;25.22;97609.63;4948054;29;1257;-74
2023/12/12 11:01:49;;;;;;;;;;;;;;;21.92;25.40;97604.22;4932778;29;1311;-74
2023/12/12 11:04:14;;;;;;;;;;;;;;;21.93;25.39;97605.78;4946711;29;1350;-74
2023/12/12 11:06:41;;;;;;;;;;;;;;;21.98;25.49;97608.03;4954701;29;1270;-74
2023/12/12 11:09:08;;;;;;;;;;;;;;;21.94;25.60;97607.38;4941677;29;1243;-74
2023/12/12 11:11:33;;;;;;;;;;;;;;;21.59;26.13;97613.75;4974163;28;1980;-74
2023/12/12 11:14:00;;;;;;;;;;;;;;;21.88;25.41;97609.22;5000952;28;1386;-74
2023/12/12 11:16:26;;;;;;;;;;;;;;;21.65;26.02;97602.66;5017150;28;1035;-74
2023/12/12 11:18:52;;;;;;;;;;;;;;;21.45;25.90;97611.41;5001083;28;1124;-74
2023/12/12 11:21:37;;;;;;;;;;;;;;;21.45;26.36;97604.94;4996033;28;1038;-74
2023/12/12 11:24:02;;;;;;;;;;;;;;;22.00;25.49;97599.88;4996016;28;1148;-74
2023/12/12 11:26:28;;;;;;;;;;;;;;;21.89;25.40;97605.13;4996540;28;964;-74
2023/12/12 11:28:55;;;;;;;;;;;;;;;22.20;25.02;97599.63;4980343;28;1004;-74
2023/12/12 11:31:23;;;;;;;;;;;;;;;21.95;25.47;97600.44;4979839;28;1910;-74
2023/12/12 11:34:07;;;;;;;;;;;;;;;21.71;25.70;97605.69;4995767;28;1316;-74
2023/12/12 11:36:51;;;;;;;;;;;;;;;21.73;25.93;97606.84;4979687;28;927;-74
2023/12/12 11:39:23;;;;;;;;;;;;;;;21.72;25.79;97607.31;4995897;28;991;-74
2023/12/12 11:41:55;;;;;;;;;;;;;;;21.92;25.67;97604.22;4979539;28;1129;-74
2023/12/12 11:44:21;;;;;;;;;;;;;;;21.93;25.23;97598.09;4979785;28;1067;-73
2023/12/12 11:46:46;;;;;;;;;;;;;;;21.79;25.85;97590.84;4980055;28;1016;-74
2023/12/12 11:49:19;;;;;;;;;;;;;;;21.77;25.49;97599.03;4979852;28;1061;-74
2023/12/12 11:51:50;;;;;;;;;;;;;;;21.64;25.94;97601.06;4987509;28;2005;-74
2023/12/12 11:54:25;;;;;;;;;;;;;;;21.23;26.56;97594.28;5016282;28;1066;-74
2023/12/12 11:57:00;;;;;;;;;;;;;;;21.84;25.70;97592.31;5016697;28;1036;-74
2023/12/12 11:59:26;;;;;;;;;;;;;;;22.00;25.45;97599.88;4999782;28;887;-74
2023/12/12 12:01:51;;;;;;;;;;;;;;;21.86;25.58;97595.47;5016395;28;890;-74
2023/12/12 12:04:17;;;;;;;;;;;;;;;21.94;25.62;97590.38;5016310;28;928;-74
2023/12/12 12:06:43;;;;;;;;;;;;;;;21.90;25.74;97595.38;5017494;28;941;-74
2023/12/12 12:09:09;;;;;;;;;;;;;;;21.73;25.73;97592.69;4998879;28;926;-74
2023/12/12 12:11:37;;;;;;;;;;;;;;;21.58;26.03;97594.41;4998189;28;1981;-75
2023/12/12 12:14:03;;;;;;;;;;;;;;;21.56;26.16;97594.06;5015036;28;937;-74
2023/12/12 12:16:29;;;;;;;;;;;;;;;21.65;25.73;97588.50;5014991;28;950;-74
2023/12/12 12:18:54;;;;;;;;;;;;;;;21.73;25.57;97586.22;5015019;28;983;-74
2023/12/12 12:21:23;;;;;;;;;;;;;;;21.73;25.71;97584.19;5014974;28;980;-75
2023/12/12 12:23:49;;;;;;;;;;;;;;;21.87;25.53;97584.97;5014520;28;1009;-74
2023/12/12 12:26:14;;;;;;;;;;;;;;;21.82;25.63;97586.34;5014825;28;1009;-73
2023/12/12 12:28:40;;;;;;;;;;;;;;;21.83;25.70;97585.09;5014841;28;945;-75
2023/12/12 12:31:06;;;;;;;;;;;;;;;21.92;25.34;97593.69;5014323;28;1980;-74
2023/12/12 12:33:34;;;;;;;;;;;;;;;21.95;25.31;97581.41;5014453;28;1246;-73
2023/12/12 12:36:01;;;;;;;;;;;;;;;21.73;25.72;97584.19;5014076;28;921;-73
2023/12/12 12:38:27;;;;;;;;;;;;;;;21.52;25.92;97587.75;5014742;28;979;-74
2023/12/12 12:40:53;;;;;;;;;;;;;;;21.46;26.06;97584.69;5014588;28;892;-74
2023/12/12 12:43:18;;;;;;;;;;;;;;;21.58;26.08;97591.56;5014674;28;1109;-75
2023/12/12 12:45:47;;;;;;;;;;;;;;;21.74;25.70;97588.59;5014482;28;976;-74
2023/12/12 12:48:12;;;;;;;;;;;;;;;21.71;25.91;97583.88;5014957;28;986;-74
2023/12/12 12:50:39;;;;;;;;;;;;;;;21.81;25.74;97587.56;5015385;28;1910;-74
2023/12/12 12:53:04;;;;;;;;;;;;;;;21.92;25.33;97587.22;5015438;28;1002;-72